createdAt,value
2022-11-01T00:01:12.367Z,2.05
2022-11-01T00:03:39.603Z,3.38
2022-11-01T00:06:07.030Z,2.15
2022-11-01T00:08:34.215Z,1.90
2022-11-01T00:11:05.151Z,1.60
2022-11-01T00:13:32.344Z,1.90
2022-11-01T00:15:59.628Z,1.83
2022-11-01T00:18:27.373Z,2.17
2022-11-01T00:20:54.710Z,1.30
2022-11-01T00:23:22.123Z,1.95
2022-11-01T00:25:49.487Z,1.77
2022-11-01T00:28:16.708Z,1.42
2022-11-01T00:30:43.905Z,2.08
2022-11-01T00:33:11.242Z,2.35
2022-11-01T00:35:38.509Z,4.07
2022-11-01T00:38:06.262Z,4.68
2022-11-01T00:40:33.679Z,4.85
2022-11-01T00:43:00.950Z,6.97
2022-11-01T00:45:28.171Z,6.05
2022-11-01T00:47:55.459Z,5.13
2022-11-01T00:50:22.639Z,4.13
2022-11-01T00:52:49.841Z,4.15
2022-11-01T00:55:17.376Z,4.45
2022-11-01T00:57:45.575Z,4.30
2022-11-01T01:00:13.462Z,3.03
2022-11-01T01:02:40.853Z,5.10
2022-11-01T01:05:08.743Z,4.00
2022-11-01T01:07:36.118Z,4.82
2022-11-01T01:10:04.215Z,3.55
2022-11-01T01:12:31.606Z,4.93
2022-11-01T01:14:58.886Z,5.43
2022-11-01T01:17:28.663Z,4.85
2022-11-01T01:19:58.450Z,4.53
2022-11-01T01:22:25.875Z,4.50
2022-11-01T01:24:53.080Z,4.85
2022-11-01T01:27:20.459Z,4.03
2022-11-01T01:29:47.667Z,3.65
2022-11-01T01:32:20.013Z,3.42
2022-11-01T01:34:47.240Z,3.30
2022-11-01T01:37:17.598Z,2.80
2022-11-01T01:39:44.807Z,3.38
2022-11-01T01:42:25.025Z,4.43
2022-11-01T01:44:55.196Z,3.08
2022-11-01T01:47:29.878Z,2.88
2022-11-01T01:50:06.396Z,3.22
2022-11-01T01:52:35.321Z,3.42
2022-11-01T01:55:05.315Z,3.33
2022-11-01T01:57:32.745Z,3.42
2022-11-01T02:00:00.105Z,2.40
2022-11-01T02:02:27.372Z,3.58
2022-11-01T02:05:30.033Z,3.85
2022-11-01T02:07:57.616Z,3.13
2022-11-01T02:10:25.085Z,4.53
2022-11-01T02:12:52.330Z,4.32
2022-11-01T02:15:23.002Z,4.50
2022-11-01T02:18:03.603Z,4.05
2022-11-01T02:20:40.402Z,5.35
2022-11-01T02:23:31.696Z,3.72
2022-11-01T02:26:04.334Z,4.28
2022-11-01T02:28:55.427Z,4.07
2022-11-01T02:31:41.432Z,3.55
2022-11-01T02:34:17.042Z,3.42
2022-11-01T02:36:49.947Z,3.00
2022-11-01T02:39:20.788Z,4.32
2022-11-01T02:41:50.512Z,3.67
2022-11-01T02:44:19.696Z,3.65
2022-11-01T02:47:02.899Z,3.95
2022-11-01T02:49:42.053Z,4.00
2022-11-01T02:52:14.194Z,2.35
2022-11-01T02:54:43.932Z,3.53
2022-11-01T02:57:23.957Z,3.00
2022-11-01T02:59:51.142Z,1.98
2022-11-01T03:02:22.231Z,2.65
2022-11-01T03:04:49.496Z,3.45
2022-11-01T03:07:17.503Z,3.50
2022-11-01T03:09:45.087Z,2.55
2022-11-01T03:12:23.564Z,2.75
2022-11-01T03:15:20.777Z,2.60
2022-11-01T03:18:00.052Z,2.00
2022-11-01T03:20:49.764Z,3.15
2022-11-01T03:23:19.673Z,2.50
2022-11-01T03:25:51.399Z,2.20
2022-11-01T03:28:21.350Z,3.65
2022-11-01T03:30:54.497Z,2.95
2022-11-01T03:33:22.852Z,1.52
2022-11-01T03:35:51.788Z,3.50
2022-11-01T03:38:21.012Z,2.60
2022-11-01T03:40:51.887Z,2.38
2022-11-01T03:43:20.332Z,3.20
2022-11-01T03:45:49.924Z,2.10
2022-11-01T03:48:17.194Z,2.50
2022-11-01T03:50:48.568Z,2.20
2022-11-01T03:53:16.143Z,3.05
2022-11-01T03:55:43.618Z,3.33
2022-11-01T03:58:13.434Z,1.90
2022-11-01T04:00:42.402Z,3.67
2022-11-01T04:03:10.683Z,2.10
2022-11-01T04:05:38.920Z,2.88
2022-11-01T04:08:06.757Z,3.30
2022-11-01T04:10:34.417Z,1.65
2022-11-01T04:13:01.971Z,2.15
2022-11-01T04:15:48.778Z,3.00
2022-11-01T04:18:37.244Z,2.38
2022-11-01T04:21:05.785Z,2.90
2022-11-01T04:23:33.216Z,1.60
2022-11-01T04:26:00.758Z,1.92
2022-11-01T04:28:30.444Z,2.90
2022-11-01T04:30:57.647Z,2.10
2022-11-01T04:33:24.811Z,4.05
2022-11-01T04:35:52.029Z,2.42
2022-11-01T04:38:19.201Z,3.67
2022-11-01T04:40:48.849Z,2.20
2022-11-01T04:43:16.380Z,2.55
2022-11-01T04:45:43.683Z,3.13
2022-11-01T04:48:16.987Z,3.28
2022-11-01T04:50:45.551Z,1.80
2022-11-01T04:53:14.201Z,1.98
2022-11-01T04:55:41.512Z,3.35
2022-11-01T04:58:10.760Z,2.90
2022-11-01T05:00:38.931Z,2.60
2022-11-01T05:03:09.890Z,3.03
2022-11-01T05:05:37.919Z,2.45
2022-11-01T05:08:06.570Z,3.20
2022-11-01T05:10:34.613Z,2.20
2022-11-01T05:13:02.324Z,2.72
2022-11-01T05:15:29.676Z,1.80
2022-11-01T05:17:57.445Z,2.63
2022-11-01T05:20:25.058Z,1.95
2022-11-01T05:22:52.255Z,2.70
2022-11-01T05:25:19.492Z,2.78
2022-11-01T05:27:46.708Z,2.20
2022-11-01T05:30:14.974Z,2.13
2022-11-01T05:32:42.260Z,1.70
2022-11-01T05:35:09.682Z,3.03
2022-11-01T05:37:39.350Z,2.45
2022-11-01T05:40:07.041Z,3.65
2022-11-01T05:42:34.235Z,2.35
2022-11-01T05:45:01.445Z,1.88
2022-11-01T05:47:28.701Z,1.83
2022-11-01T05:49:55.901Z,2.28
2022-11-01T05:52:23.085Z,3.40
2022-11-01T05:54:50.243Z,2.72
2022-11-01T05:57:17.393Z,2.70
2022-11-01T05:59:44.518Z,2.95
2022-11-01T06:02:11.832Z,3.10
2022-11-01T06:04:39.021Z,3.55
2022-11-01T06:07:06.263Z,2.92
2022-11-01T06:09:33.439Z,2.13
2022-11-01T06:12:00.646Z,1.90
2022-11-01T06:14:27.973Z,2.90
2022-11-01T06:16:56.442Z,1.88
2022-11-01T06:19:23.623Z,3.80
2022-11-01T06:21:50.774Z,2.65
2022-11-01T06:24:17.959Z,2.50
2022-11-01T06:26:45.231Z,2.08
2022-11-01T06:29:12.413Z,3.20
2022-11-01T06:31:39.863Z,3.05
2022-11-01T06:34:09.566Z,2.25
2022-11-01T06:36:36.871Z,2.88
2022-11-01T06:39:04.117Z,2.70
2022-11-01T06:41:31.321Z,3.65
2022-11-01T06:43:58.476Z,2.25
2022-11-01T06:46:25.808Z,3.08
2022-11-01T06:48:55.537Z,3.28
2022-11-01T06:51:22.796Z,2.30
2022-11-01T06:53:52.488Z,2.78
2022-11-01T06:56:19.837Z,2.60
2022-11-01T06:58:50.573Z,1.85
2022-11-01T07:01:22.276Z,2.65
2022-11-01T07:03:52.928Z,2.85
2022-11-01T07:06:28.563Z,2.83
2022-11-01T07:08:55.888Z,2.38
2022-11-01T07:11:25.246Z,2.22
2022-11-01T07:13:56.017Z,3.05
2022-11-01T07:16:23.222Z,2.65
2022-11-01T07:18:51.020Z,2.20
2022-11-01T07:21:18.575Z,2.78
2022-11-01T07:23:45.803Z,2.15
2022-11-01T07:26:13.320Z,2.65
2022-11-01T07:28:40.570Z,2.85
2022-11-01T07:31:08.181Z,3.00
2022-11-01T07:33:35.829Z,2.35
2022-11-01T07:36:06.152Z,2.05
2022-11-01T07:38:33.533Z,2.88
2022-11-01T07:41:01.007Z,2.17
2022-11-01T07:43:28.297Z,2.97
2022-11-01T07:45:58.941Z,1.75
2022-11-01T07:48:26.095Z,1.88
2022-11-01T07:50:56.177Z,1.77
2022-11-01T07:53:25.922Z,2.97
2022-11-01T07:55:53.151Z,1.98
2022-11-01T07:58:20.382Z,1.38
2022-11-01T08:00:47.998Z,2.78
2022-11-01T08:03:16.287Z,2.83
2022-11-01T08:05:44.104Z,2.40
2022-11-01T08:08:13.732Z,1.67
2022-11-01T08:10:42.218Z,2.30
2022-11-01T08:13:20.081Z,2.25
2022-11-01T08:15:48.138Z,1.65
2022-11-01T08:18:16.246Z,2.08
2022-11-01T08:20:43.853Z,1.90
2022-11-01T08:23:11.743Z,2.28
2022-11-01T08:25:39.334Z,2.13
2022-11-01T08:28:08.173Z,1.52
2022-11-01T08:30:36.830Z,2.55
2022-11-01T08:33:04.981Z,2.35
2022-11-01T08:35:33.632Z,1.80
2022-11-01T08:38:01.263Z,3.83
2022-11-01T08:40:28.595Z,4.80
2022-11-01T08:42:56.128Z,1.58
2022-11-01T08:45:23.683Z,2.75
2022-11-01T08:47:50.913Z,2.25
2022-11-01T08:50:18.663Z,1.55
2022-11-01T08:52:45.922Z,2.40
2022-11-01T08:55:13.152Z,1.65
2022-11-01T08:57:40.343Z,2.10
2022-11-01T09:00:08.111Z,1.80
2022-11-01T09:02:35.414Z,1.67
2022-11-01T09:05:05.257Z,1.65
2022-11-01T09:07:32.526Z,2.25
2022-11-01T09:09:59.721Z,2.35
2022-11-01T09:12:27.055Z,1.50
2022-11-01T09:14:54.356Z,2.25
2022-11-01T09:17:21.547Z,1.80
2022-11-01T09:19:48.811Z,2.03
2022-11-01T09:22:16.064Z,2.40
2022-11-01T09:24:43.292Z,2.72
2022-11-01T09:27:10.892Z,2.28
2022-11-01T09:29:38.064Z,1.52
2022-11-01T09:32:06.704Z,2.13
2022-11-01T09:34:34.220Z,2.00
2022-11-01T09:37:01.438Z,3.20
2022-11-01T09:39:28.603Z,1.85
2022-11-01T09:42:00.108Z,1.42
2022-11-01T09:44:29.418Z,2.08
2022-11-01T09:47:02.342Z,2.10
2022-11-01T09:49:32.407Z,2.33
2022-11-01T09:52:00.022Z,2.05
2022-11-01T09:54:27.458Z,1.98
2022-11-01T09:57:01.018Z,2.08
2022-11-01T09:59:46.910Z,2.22
2022-11-01T10:02:32.653Z,2.42
2022-11-01T10:05:18.613Z,2.88
2022-11-01T10:07:52.250Z,2.10
2022-11-01T10:10:19.615Z,2.72
2022-11-01T10:12:52.895Z,2.22
2022-11-01T10:15:53.997Z,2.95
2022-11-01T10:18:23.852Z,2.55
2022-11-01T10:20:51.376Z,2.25
2022-11-01T10:23:21.377Z,2.15
2022-11-01T10:25:53.090Z,3.00
2022-11-01T10:28:29.146Z,1.80
2022-11-01T10:31:01.911Z,1.85
2022-11-01T10:33:40.332Z,2.10
2022-11-01T10:36:15.573Z,2.08
2022-11-01T10:41:42.445Z,2.70
2022-11-01T10:44:18.947Z,2.05
2022-11-01T10:46:47.673Z,1.45
2022-11-01T10:49:22.371Z,2.72
2022-11-01T10:51:53.958Z,1.98
2022-11-01T10:54:24.401Z,2.38
2022-11-01T10:56:53.007Z,2.65
2022-11-01T10:59:29.499Z,1.60
2022-11-01T11:01:57.297Z,2.55
2022-11-01T11:04:25.146Z,1.88
2022-11-01T11:06:53.050Z,2.80
2022-11-01T11:09:26.216Z,2.40
2022-11-01T11:11:56.012Z,2.20
2022-11-01T11:14:23.960Z,2.83
2022-11-01T11:16:53.225Z,2.17
2022-11-01T11:19:21.144Z,2.10
2022-11-01T11:21:49.749Z,2.95
2022-11-01T11:24:27.480Z,2.63
2022-11-01T11:26:56.031Z,1.70
2022-11-01T11:29:33.819Z,2.33
2022-11-01T11:32:01.484Z,1.55
2022-11-01T11:34:34.376Z,2.50
2022-11-01T11:37:06.246Z,1.08
2022-11-01T11:39:35.657Z,2.10
2022-11-01T11:42:14.023Z,1.92
2022-11-01T11:44:45.922Z,1.40
2022-11-01T11:47:18.976Z,1.77
2022-11-01T11:49:46.312Z,1.92
2022-11-01T11:52:18.423Z,1.20
2022-11-01T11:54:46.229Z,1.08
2022-11-01T11:57:21.267Z,1.27
2022-11-01T12:00:14.866Z,1.50
2022-11-01T12:02:42.608Z,1.58
2022-11-01T12:05:15.829Z,1.70
2022-11-01T12:07:45.848Z,2.00
2022-11-01T12:10:34.040Z,2.72
2022-11-01T12:13:02.572Z,1.80
2022-11-01T12:15:37.046Z,2.08
2022-11-01T12:18:14.588Z,2.60
2022-11-01T12:20:43.329Z,1.80
2022-11-01T12:23:15.250Z,1.88
2022-11-01T12:25:43.945Z,1.17
2022-11-01T12:28:20.151Z,1.83
2022-11-01T12:30:49.903Z,2.60
2022-11-01T12:33:20.245Z,2.40
2022-11-01T12:35:48.486Z,2.40
2022-11-01T12:38:18.723Z,3.15
2022-11-01T12:40:46.969Z,2.33
2022-11-01T12:43:20.887Z,0.50
2022-11-01T12:45:49.976Z,0.70
2022-11-01T12:48:37.294Z,1.10
2022-11-01T12:51:06.722Z,2.03
2022-11-01T12:54:06.466Z,2.38
2022-11-01T12:56:33.907Z,2.15
2022-11-01T12:59:01.177Z,3.00
2022-11-01T13:01:36.478Z,2.53
2022-11-01T13:04:17.375Z,2.13
2022-11-01T13:06:44.634Z,3.22
2022-11-01T13:09:11.936Z,3.15
2022-11-01T13:11:45.040Z,2.75
2022-11-01T13:14:22.929Z,2.55
2022-11-01T13:16:52.060Z,2.05
2022-11-01T13:19:24.156Z,2.47
2022-11-01T13:21:59.526Z,3.03
2022-11-01T13:24:32.689Z,2.47
2022-11-01T13:26:59.859Z,2.22
2022-11-01T13:29:51.936Z,1.77
2022-11-01T13:35:26.070Z,1.88
2022-11-01T13:38:04.844Z,2.75
2022-11-01T13:40:43.949Z,1.80
2022-11-01T13:43:17.165Z,1.58
2022-11-01T13:45:53.386Z,0.70
2022-11-01T13:48:33.905Z,1.48
2022-11-01T13:51:23.804Z,2.17
2022-11-01T13:53:53.746Z,1.95
2022-11-01T13:56:20.921Z,2.50
2022-11-01T13:58:48.447Z,1.90
2022-11-01T14:01:29.897Z,1.23
2022-11-01T14:04:29.223Z,2.05
2022-11-01T14:07:11.186Z,3.05
2022-11-01T14:09:54.570Z,2.27
2022-11-01T14:12:36.866Z,1.60
2022-11-01T14:15:10.434Z,2.05
2022-11-01T14:17:39.637Z,1.83
2022-11-01T14:20:08.509Z,1.85
2022-11-01T14:22:35.988Z,2.15
2022-11-01T14:25:04.381Z,2.10
2022-11-01T14:27:35.494Z,2.92
2022-11-01T14:30:03.179Z,4.40
2022-11-01T14:32:31.158Z,3.03
2022-11-01T14:35:00.013Z,2.83
2022-11-01T14:37:29.110Z,2.90
2022-11-01T14:39:59.475Z,3.53
2022-11-01T14:42:29.954Z,3.00
2022-11-01T14:44:59.926Z,2.78
2022-11-01T14:47:33.371Z,2.72
2022-11-01T14:50:03.624Z,2.08
2022-11-01T14:52:35.835Z,2.22
2022-11-01T14:55:06.841Z,1.13
2022-11-01T14:57:34.799Z,1.38
2022-11-01T15:00:20.029Z,1.10
2022-11-01T15:02:47.347Z,1.63
2022-11-01T15:05:16.898Z,1.55
2022-11-01T15:07:44.340Z,1.65
2022-11-01T15:10:12.837Z,1.10
2022-11-01T15:12:48.620Z,1.13
2022-11-01T15:15:17.892Z,1.35
2022-11-01T15:17:50.845Z,1.50
2022-11-01T15:20:19.257Z,1.30
2022-11-01T15:22:47.111Z,2.10
2022-11-01T15:25:21.045Z,1.90
2022-11-01T15:27:48.651Z,2.25
2022-11-01T15:30:26.225Z,1.83
2022-11-01T15:33:13.138Z,1.52
2022-11-01T15:35:40.823Z,2.70
2022-11-01T15:38:21.233Z,2.88
2022-11-01T15:40:50.481Z,3.53
2022-11-01T15:43:19.816Z,5.22
2022-11-01T15:45:49.361Z,2.63
2022-11-01T15:48:20.448Z,1.80
2022-11-01T15:50:49.824Z,2.15
2022-11-01T15:53:20.797Z,1.70
2022-11-01T15:55:50.460Z,1.30
2022-11-01T15:58:22.512Z,2.10
2022-11-01T16:00:55.213Z,1.70
2022-11-01T16:05:56.715Z,1.95
2022-11-01T16:08:29.890Z,2.78
2022-11-01T16:10:57.141Z,1.60
2022-11-01T16:13:24.857Z,1.70
2022-11-01T16:16:06.027Z,1.85
2022-11-01T16:18:34.185Z,2.35
2022-11-01T16:21:02.181Z,2.22
2022-11-01T16:23:29.627Z,1.95
2022-11-01T16:26:05.379Z,1.88
2022-11-01T16:28:40.009Z,2.05
2022-11-01T16:31:26.857Z,2.35
2022-11-01T16:33:54.296Z,1.63
2022-11-01T16:36:21.546Z,2.28
2022-11-01T16:38:54.927Z,1.60
2022-11-01T16:41:22.183Z,1.80
2022-11-01T16:43:52.791Z,2.30
2022-11-01T16:46:20.890Z,2.13
2022-11-01T16:48:53.317Z,1.60
2022-11-01T16:51:21.341Z,2.63
2022-11-01T16:53:50.411Z,1.63
2022-11-01T16:56:36.954Z,1.45
2022-11-01T16:59:25.468Z,2.42
2022-11-01T17:01:55.487Z,1.58
2022-11-01T17:04:23.163Z,1.45
2022-11-01T17:06:50.879Z,1.92
2022-11-01T17:09:19.639Z,1.80
2022-11-01T17:11:51.543Z,3.40
2022-11-01T17:14:19.217Z,2.47
2022-11-01T17:16:47.674Z,1.60
2022-11-01T17:19:35.087Z,1.85
2022-11-01T17:22:05.134Z,2.05
2022-11-01T17:24:33.397Z,1.92
2022-11-01T17:27:02.128Z,2.15
2022-11-01T17:29:29.814Z,2.13
2022-11-01T17:31:57.183Z,2.50
2022-11-01T17:34:26.366Z,2.78
2022-11-01T17:36:53.824Z,1.65
2022-11-01T17:39:21.214Z,1.73
2022-11-01T17:41:48.441Z,1.95
2022-11-01T17:44:15.745Z,2.28
2022-11-01T17:46:42.970Z,1.50
2022-11-01T17:49:14.224Z,2.00
2022-11-01T17:51:41.424Z,2.42
2022-11-01T17:54:09.708Z,3.38
2022-11-01T17:56:36.994Z,2.63
2022-11-01T17:59:04.242Z,2.97
2022-11-01T18:01:31.608Z,3.63
2022-11-01T18:03:58.978Z,2.60
2022-11-01T18:06:26.543Z,2.97
2022-11-01T18:08:54.125Z,3.47
2022-11-01T18:11:43.173Z,1.90
2022-11-01T18:14:10.730Z,2.88
2022-11-01T18:16:49.085Z,1.58
2022-11-01T18:19:35.367Z,1.70
2022-11-01T18:22:21.250Z,0.80
2022-11-01T18:24:53.000Z,1.05
2022-11-01T18:27:37.283Z,0.93
2022-11-01T18:30:15.249Z,1.10
2022-11-01T18:32:46.283Z,1.65
2022-11-01T18:35:30.736Z,0.70
2022-11-01T18:38:02.707Z,0.60
2022-11-01T18:40:40.103Z,0.88
2022-11-01T18:43:10.406Z,1.60
2022-11-01T18:45:57.761Z,1.23
2022-11-01T18:48:27.428Z,1.10
2022-11-01T18:51:03.867Z,1.33
2022-11-01T18:53:33.399Z,2.38
2022-11-01T18:56:14.057Z,4.55
2022-11-01T18:58:41.318Z,2.70
2022-11-01T19:01:09.708Z,2.75
2022-11-01T19:03:37.026Z,3.45
2022-11-01T19:06:30.836Z,3.50
2022-11-01T19:08:59.273Z,2.25
2022-11-01T19:11:27.040Z,1.70
2022-11-01T19:13:55.713Z,1.77
2022-11-01T19:16:23.091Z,2.42
2022-11-01T19:18:50.398Z,2.33
2022-11-01T19:21:21.586Z,2.13
2022-11-01T19:23:58.273Z,2.78
2022-11-01T19:26:36.080Z,2.40
2022-11-01T19:29:26.122Z,2.25
2022-11-01T19:31:55.117Z,1.80
2022-11-01T19:34:27.102Z,2.10
2022-11-01T19:36:55.037Z,2.38
2022-11-01T19:39:31.211Z,1.85
2022-11-01T19:42:01.923Z,1.17
2022-11-01T19:44:30.735Z,1.50
2022-11-01T19:47:20.832Z,1.52
2022-11-01T19:49:48.175Z,2.05
2022-11-01T19:52:15.494Z,1.77
2022-11-01T19:54:44.182Z,1.52
2022-11-01T19:57:26.512Z,1.90
2022-11-01T19:59:54.485Z,1.98
2022-11-01T20:02:22.746Z,1.75
2022-11-01T20:04:53.549Z,1.42
2022-11-01T20:07:26.732Z,1.25
2022-11-01T20:09:58.391Z,1.75
2022-11-01T20:12:26.050Z,1.30
2022-11-01T20:14:53.695Z,2.17
2022-11-01T20:17:20.895Z,1.33
2022-11-01T20:19:48.089Z,1.38
2022-11-01T20:22:15.330Z,2.25
2022-11-01T20:24:42.570Z,4.00
2022-11-01T20:27:09.786Z,3.55
2022-11-01T20:29:37.184Z,2.05
2022-11-01T20:32:04.439Z,1.92
2022-11-01T20:34:32.667Z,1.77
2022-11-01T20:37:27.010Z,1.20
2022-11-01T20:39:47.179Z,1.10
2022-11-01T20:42:15.121Z,1.05
2022-11-01T20:44:42.870Z,1.25
2022-11-01T20:47:10.070Z,2.05
2022-11-01T20:49:37.415Z,1.95
2022-11-01T20:52:38.594Z,1.95
2022-11-01T20:54:52.539Z,2.88
2022-11-01T20:57:27.592Z,2.20
2022-11-01T20:59:55.851Z,2.20
2022-11-01T21:02:23.401Z,1.67
2022-11-01T21:05:17.140Z,1.85
2022-11-01T21:07:47.769Z,2.22
2022-11-01T21:10:35.836Z,3.30
2022-11-01T21:13:07.776Z,1.92
2022-11-01T21:15:36.790Z,1.50
2022-11-01T21:18:12.965Z,2.53
2022-11-01T21:20:41.443Z,1.45
2022-11-01T21:23:28.414Z,1.65
2022-11-01T21:25:59.779Z,1.63
2022-11-01T21:28:29.876Z,1.33
2022-11-01T21:31:17.344Z,1.20
2022-11-01T21:33:49.807Z,1.60
2022-11-01T21:36:20.018Z,1.98
2022-11-01T21:38:52.166Z,1.38
2022-11-01T21:41:28.419Z,1.55
2022-11-01T21:43:58.608Z,2.35
2022-11-01T21:46:28.787Z,1.90
2022-11-01T21:48:58.900Z,2.88
2022-11-01T21:51:26.612Z,1.67
2022-11-01T21:53:53.903Z,1.45
2022-11-01T21:56:21.099Z,1.10
2022-11-01T21:58:48.266Z,1.88
2022-11-01T22:01:15.619Z,1.90
2022-11-01T22:03:42.945Z,1.90
2022-11-01T22:06:10.240Z,2.78
2022-11-01T22:08:37.619Z,3.35
2022-11-01T22:11:04.797Z,2.80
2022-11-01T22:13:32.060Z,3.47
2022-11-01T22:15:59.286Z,2.78
2022-11-01T22:18:26.516Z,2.13
2022-11-01T22:20:53.730Z,2.20
2022-11-01T22:23:21.044Z,2.25
2022-11-01T22:25:48.299Z,1.90
2022-11-01T22:28:15.504Z,1.95
2022-11-01T22:30:42.712Z,2.17
2022-11-01T22:33:11.153Z,2.38
2022-11-01T22:35:38.495Z,1.70
2022-11-01T22:38:19.229Z,1.63
2022-11-01T22:43:29.109Z,2.33
2022-11-01T22:45:57.277Z,1.70
2022-11-01T22:48:24.853Z,1.50
2022-11-01T22:50:52.373Z,2.00
2022-11-01T22:53:23.694Z,1.13
2022-11-01T22:55:52.463Z,1.45
2022-11-01T22:58:31.893Z,1.48
2022-11-01T23:01:00.573Z,1.40
2022-11-01T23:03:39.014Z,2.08
2022-11-01T23:06:21.302Z,3.35
2022-11-01T23:08:48.749Z,2.25
2022-11-01T23:11:37.555Z,2.20
2022-11-01T23:14:37.336Z,1.55
2022-11-01T23:17:16.006Z,1.80
2022-11-01T23:19:43.352Z,1.35
2022-11-01T23:22:13.172Z,1.50
2022-11-01T23:24:40.385Z,0.80
2022-11-01T23:27:08.023Z,1.05
2022-11-01T23:29:35.241Z,1.33
2022-11-01T23:32:02.609Z,1.35
2022-11-01T23:34:29.945Z,1.42
2022-11-01T23:36:57.174Z,1.20
2022-11-01T23:39:24.558Z,1.15
2022-11-01T23:41:53.058Z,1.17
2022-11-01T23:44:26.169Z,1.65
2022-11-01T23:46:53.723Z,1.13
2022-11-01T23:49:23.463Z,1.08
2022-11-01T23:51:51.301Z,0.98
2022-11-01T23:54:42.040Z,1.58
2022-11-01T23:57:22.359Z,1.80
2022-11-01T23:59:50.187Z,0.85
